• Join FlightAware (Why Join?)
  • Login
  • US Flag 
07:24PM EST


 

Airport Tracker/Info


-or-


 

Live Flight TrackerFlight Track Log ✈ BSK1183 ✈ 26-Mar-2014 ✈ KGRR - KPIE

Flight Track Log - Related Links

Times and Time Zones

All times are in EDT time to prevent confusion due to time zone crossing. See the BSK1183 flight status page for this flight to view local times or setup timezone preferences in your user account.

Time Position Orientation Groundspeed Altitude Reporting Facility
EDT Latitude Longitude Course Direction KTS MPH feet Rate Location/Type
07:40PM 42.8494 -85.5778 117° Southeast 171 197 2,700  Level Cleveland Center
07:41PM 42.8144 -85.5058 124° Southeast 240 276 4,800 2,280 Climbing Cleveland Center
07:42PM 42.7761 -85.3994 116° Southeast 270 311 7,500 2,400 Climbing Cleveland Center
07:43PM 42.7347 -85.2886 117° Southeast 304 350 9,800 1,800 Climbing Cleveland Center
07:44PM 42.6914 -85.1658 116° Southeast 357 411 11,300 1,920 Climbing Cleveland Center
07:45PM 42.5341 -84.6486 117° Southeast  Level FlightAware Approximate
07:45PM 42.6425 -85.0339 117° Southeast 384 442 13,900  Level Chicago Center
07:46PM 42.5919 -84.8939 116° Southeast 405 466 16,300 2,220 Climbing Chicago Center
07:48PM 42.4733 -84.5775 117° Southeast 446 513 20,700 2,040 Climbing Cleveland Center
07:49PM 42.4153 -84.4194 116° Southeast 467 537 22,500 1,740 Climbing Cleveland Center
07:50PM 42.3525 -84.2553 117° Southeast 488 562 24,400 1,500 Climbing Cleveland Center
07:51PM 42.2897 -84.0875 117° Southeast 501 577 25,600 1,200 Climbing Cleveland Center
07:52PM 42.2239 -83.9144 117° Southeast 518 596 27,000 1,560 Climbing Cleveland Center
07:53PM 42.1442 -83.7058 117° Southeast 526 605 28,900 1,620 Climbing Cleveland Center
07:54PM 42.0711 -83.5456 122° Southeast 521 600 30,400 1,440 Climbing Cleveland Center
07:55PM 41.9456 -83.4936 163° South 488 562 31,900 1,200 Climbing Cleveland Center
07:56PM 41.8225 -83.5353 194° South 454 522 32,900 1,200 Climbing Cleveland Center
07:57PM 41.6992 -83.5769 194° South 456 525 34,400 1,380 Climbing Cleveland Center
07:58PM 41.5542 -83.6256 194° South 452 520 35,800 720 Climbing Cleveland Center
07:59PM 41.4333 -83.6661 194° South 451 519 36,000 60 Climbing Cleveland Center
08:00PM 41.3114 -83.7072 194° South 451 519 36,000  Level Cleveland Center
08:01PM 41.1919 -83.7472 194° South 447 514 36,000  Level Cleveland Center
08:02PM 41.0653 -83.7894 194° South 448 516 36,000  Level Cleveland Center
08:03PM 40.9456 -83.8278 194° South 447 514 36,000  Level Cleveland Center
08:04PM 40.8169 -83.8719 195° South 447 514 36,000  Level Cleveland Center
08:05PM 40.7067 -83.9067 193° South 446 513 36,000  Level Cleveland Center
08:07PM 40.5644 -83.9531 194° South 444 511 36,000  Level Cleveland Center
08:08PM 40.4461 -83.9917 194° South 441 507 36,000  Level Cleveland Center
08:09PM 40.3283 -84.0303 194° South 441 507 36,000  Level Cleveland Center
08:10PM 40.2064 -84.0575 190° South 446 513 36,000  Level Cleveland Center
08:11PM 40.0842 -84.0761 187° South 446 513 36,000  Level Cleveland Center
08:12PM 39.9367 -84.1019 188° South 446 513 36,000  Level Cleveland Center
08:13PM 39.8144 -84.1222 187° South 447 514 36,000  Level Cleveland Center
08:18PM 39.1319 -84.1339 177° South 456 525 36,000  Level FlightAware ADS-B (KCVG)
08:24PM 38.3251 -84.0772 177° South 466 536 36,000  Level FlightAware ADS-B
08:25PM 38.2087 -84.0688 177° South 465 535 36,000  Level FlightAware ADS-B
08:27PM 38.1741 -84.0662 177° South 464 534 36,000  Level FlightAware ADS-B
08:30PM 37.6551 -84.0305 177° South 463 533 36,000  Level FlightAware ADS-B
08:31PM 37.4265 -84.0150 177° South 459 528 36,000  Level FlightAware ADS-B
08:33PM 37.1938 -83.9989 177° South 453 521 36,000  Level FlightAware ADS-B
08:34PM 37.1036 -83.9926 177° South 450 518 36,000  Level FlightAware ADS-B
08:35PM 37.0339 -83.9719 177° South 456 525 36,000  Level Indianapolis Center
08:36PM 36.9108 -83.9642 177° South 449 517 36,000  Level Indianapolis Center
08:37PM 36.7864 -83.9544 176° South 449 517 36,000  Level Indianapolis Center
08:38PM 36.6425 -83.9456 177° South 447 514 36,000  Level Indianapolis Center
08:39PM 36.5197 -83.9372 177° South 447 514 36,000  Level Indianapolis Center
08:40PM 36.4042 -83.9289 177° South 446 513 36,000  Level Indianapolis Center
08:41PM 36.2789 -83.9192 176° South 446 513 36,000  Level Indianapolis Center
08:46PM 35.4422 -83.7790 166° South 451 519 36,000  Level FlightAware ADS-B (KDZJ)
08:47PM 35.3710 -83.7579 166° South 451 519 36,000  Level FlightAware ADS-B (KDZJ)
08:48PM 35.2732 -83.7290 166° South 460 529 36,000  Level FlightAware ADS-B (KDZJ)
08:48PM 35.1840 -83.7028 166° South 451 519 36,000  Level FlightAware ADS-B (KDZJ)
08:49PM 35.1059 -83.6799 166° South 451 519 36,000  Level FlightAware ADS-B (KDZJ)
08:50PM 35.0433 -83.6616 167° South 461 531 36,000  Level FlightAware ADS-B (KDZJ)
08:50PM 34.9442 -83.6327 167° South 462 532 36,000  Level FlightAware ADS-B (KDZJ)
08:51PM 34.8558 -83.6070 167° South 462 532 36,000  Level FlightAware ADS-B (KDZJ)
08:52PM 34.7873 -83.5869 167° South 463 533 36,000  Level FlightAware ADS-B (KDZJ)
08:52PM 34.6857 -83.5576 167° South 466 536 36,000  Level FlightAware ADS-B (KDZJ)
08:53PM 34.6207 -83.5387 167° South 467 537 36,000  Level FlightAware ADS-B (KDZJ)
08:54PM 34.5379 -83.5146 166° South 461 531 36,000  Level FlightAware ADS-B (KDZJ)
08:54PM 34.4346 -83.4849 166° South 462 532 36,000  Level FlightAware ADS-B (KDZJ)
08:55PM 34.3527 -83.4613 166° South 462 532 36,000  Level FlightAware ADS-B (KDZJ)
08:56PM 34.2645 -83.4360 166° South 460 529 36,000  Level FlightAware ADS-B (KDZJ)
08:56PM 34.1950 -83.4161 166° South 460 529 36,000  Level FlightAware ADS-B (KDZJ)
08:57PM 34.2308 -83.4056 166° South 471 542 36,000  Level Atlanta Center
08:58PM 34.1056 -83.3689 166° South 471 542 36,000  Level Atlanta Center
08:59PM 33.9781 -83.3350 168° South 471 542 36,000  Level Atlanta Center
09:00PM 33.8506 -83.2933 165° South 471 542 36,000  Level Atlanta Center
09:01PM 33.7269 -83.2494 164° South 471 542 36,000  Level Atlanta Center
09:02PM 33.6014 -83.2058 164° South 469 540 36,000  Level Atlanta Center
09:03PM 33.4739 -83.1672 166° South 469 540 36,000  Level Atlanta Center
09:04PM 33.3525 -83.1236 163° South 464 534 36,000  Level Atlanta Center
09:05PM 33.2394 -83.0850 164° South 464 534 36,000  Level Atlanta Center
09:06PM 33.1161 -83.0442 165° South 455 524 36,000  Level Atlanta Center
09:07PM 33.0008 -83.0011 163° South 455 524 36,000  Level Atlanta Center
09:09PM 32.6842 -82.8950 164° South 452 520 36,000  Level Jacksonville Center
09:10PM 32.5611 -82.8531 164° South 452 520 36,000  Level Jacksonville Center
09:11PM 32.4400 -82.8114 164° South 452 520 36,000  Level Jacksonville Center
09:12PM 32.3314 -82.7722 163° South 452 520 36,000  Level Jacksonville Center
09:13PM 32.2081 -82.7306 164° South 457 526 36,000  Level Jacksonville Center
09:14PM 32.0850 -82.6914 165° South 457 526 36,000  Level Jacksonville Center
09:15PM 31.9597 -82.6478 164° South 457 526 36,000  Level Jacksonville Center
09:16PM 31.8342 -82.6114 166° South 457 526 36,000  Level Jacksonville Center
09:17PM 31.7089 -82.5947 174° South 457 526 36,000  Level Jacksonville Center
09:18PM 31.5731 -82.5781 174° South 457 526 36,000  Level Jacksonville Center
09:19PM 31.4478 -82.5661 175° South 452 520 36,000  Level Jacksonville Center
09:26PM 30.6704 -82.5027 175° South 452 520 36,000  Level FlightAware ADS-B (KMCO)
09:27PM 30.5463 -82.4893 175° South 452 520 36,000 -180 Level FlightAware ADS-B (KMCO)
09:27PM 30.4921 -82.4835 175° South 451 519 35,800 -720 Descending FlightAware ADS-B (KMCO)
09:28PM 30.4186 -82.4754 175° South 451 519 35,300 -960 Descending FlightAware ADS-B (KMCO)
09:28PM 30.3360 -82.4667 175° South 457 526 34,700 -960 Descending FlightAware ADS-B (KMCO)
09:29PM 30.2744 -82.4603 175° South 461 531 34,200 -960 Descending FlightAware ADS-B (KMCO)
09:29PM 30.2002 -82.4524 175° South 466 536 33,600 -960 Descending FlightAware ADS-B (KMCO)
09:30PM 30.1214 -82.4440 175° South 469 540 33,100 -960 Descending FlightAware ADS-B (KMCO)
09:31PM 30.0356 -82.4347 175° South 471 542 32,500 -1,020 Descending FlightAware ADS-B (KMCO)
09:31PM 29.9480 -82.4251 175° South 460 529 31,800 -1,080 Descending FlightAware ADS-B (KMCO)
09:32PM 29.8654 -82.4162 175° South 449 517 31,100 -1,200 Descending FlightAware ADS-B (KMCO)
09:33PM 29.7429 -82.4033 175° South 436 502 29,900 -1,500 Descending FlightAware ADS-B (KMCO)
09:33PM 29.6823 -82.3971 175° South 427 491 28,900 -1,980 Descending FlightAware ADS-B (KMCO)
09:34PM 29.6306 -82.3916 175° South 421 484 27,900 -1,920 Descending FlightAware ADS-B (KMCO)
09:34PM 29.5659 -82.3843 172° South 423 487 27,000 -900 Descending FlightAware ADS-B (KMCO)
09:35PM 29.5065 -82.3724 170° South 433 498 27,000 -480 Level FlightAware ADS-B (KMCO)
09:36PM 29.4305 -82.3568 170° South 435 501 26,500 -1,680 Descending FlightAware ADS-B (KMCO)
09:36PM 29.3683 -82.3444 170° South 437 503 25,100 -2,400 Descending FlightAware ADS-B (KMCO)
09:37PM 29.2892 -82.3279 170° South 428 493 23,700 -2,160 Descending FlightAware ADS-B (KMCO)
09:37PM 29.2305 -82.3160 170° South 420 483 22,600 -2,100 Descending FlightAware ADS-B (KMCO)
09:38PM 29.1223 -82.2941 172° South 405 466 20,700 -2,040 Descending FlightAware ADS-B (KMCO)
09:39PM 29.0645 -82.2907 179° South 395 455 19,600 -2,100 Descending FlightAware ADS-B (KMCO)
09:39PM 28.9945 -82.2899 180° South 385 443 18,200 -2,160 Descending FlightAware ADS-B (KMCO)
09:40PM 28.9041 -82.2890 180° South 376 433 16,400 -2,160 Descending FlightAware ADS-B (KMCO)
09:41PM 28.8494 -82.2881 179° South 370 426 15,300 -2,040 Descending FlightAware ADS-B (KMCO)
09:41PM 28.7917 -82.2873 179° South 363 418 14,200 -1,080 Descending FlightAware ADS-B (KMCO)
09:43PM 28.6093 -82.2849 179° South 310 357 12,700 -1,080 Descending FlightAware ADS-B (KMCO)
09:44PM 28.5607 -82.3109 236° Southwest 295 339 11,500 -1,380 Descending FlightAware ADS-B (KMCO)
09:44PM 28.5667 -82.3333 236° Southwest 289 333 11,000 -960 Descending Tampa TRACON
09:45PM 28.5333 -82.4000 240° Southwest 281 323 10,000 -540 Descending Tampa TRACON
09:46PM 28.5000 -82.4833 246° West 275 316 10,000  Level Tampa TRACON
09:47PM 28.4667 -82.5667 246° West 285 328 10,000  Level Tampa TRACON
09:48PM 28.4333 -82.6333 240° Southwest 288 331 10,000  Level Tampa TRACON
09:49PM 28.3667 -82.7000 221° Southwest 294 338 10,000 -300 Level Tampa TRACON
09:51PM 28.2833 -82.7500 208° Southwest 291 335 9,400 -960 Descending Tampa TRACON
09:52PM 28.2167 -82.8167 221° Southwest 281 323 7,800 -1,260 Descending Tampa TRACON
09:53PM 28.1667 -82.8500 210° Southwest 272 313 7,000 -1,380 Descending Tampa TRACON
09:54PM 28.1000 -82.8833 204° Southwest 272 313 5,200 -1,200 Descending Tampa TRACON
09:55PM 28.0167 -82.8833 180° South 246 283 4,600 -780 Descending Tampa TRACON
09:56PM 27.9500 -82.8667 168° South 214 246 3,600 -780 Descending Tampa TRACON
09:57PM 27.9000 -82.8500 164° South 189 217 3,000 -300 Descending Tampa TRACON
09:58PM 27.8500 -82.8500 180° South 182 209 3,000 -240 Level Tampa TRACON
09:59PM 27.8000 -82.8167 149° Southeast 179 206 2,600 -600 Descending Tampa TRACON
10:00PM 27.8167 -82.7667 69° East 164 189 1,900 -540 Descending Tampa TRACON
10:01PM 27.8167 -82.7167 90° East 152 175 1,600 -420 Descending Tampa TRACON
10:02PM 27.8333 -82.6833 61° Northeast 141 162 1,100 -600 Descending Tampa TRACON
10:03PM 27.8833 -82.6833 360° North 156 180 400 -720 Descending Tampa TRACON
10:05PM 27.9100 -82.6875 40° Northeast  Level Estimated
10:12PM 27.9100 -82.6875 North  Level Estimated
10:13PM 27.9100 -82.6875 North  Level Estimated